createdAt,value
2019-03-12T00:00:31.057Z,4.83
2019-03-12T00:03:00.175Z,8.10
2019-03-12T00:05:29.379Z,7.47
2019-03-12T00:07:58.467Z,6.80
2019-03-12T00:10:27.572Z,9.40
2019-03-12T00:12:56.735Z,5.60
2019-03-12T00:15:26.078Z,11.60
2019-03-12T00:17:55.275Z,4.83
2019-03-12T00:20:24.399Z,6.40
2019-03-12T00:22:53.496Z,5.43
2019-03-12T00:25:22.872Z,8.70
2019-03-12T00:27:51.984Z,5.10
2019-03-12T00:30:21.127Z,4.27
2019-03-12T00:32:50.250Z,11.27
2019-03-12T00:35:19.371Z,11.70
2019-03-12T00:37:48.491Z,4.00
2019-03-12T00:40:17.959Z,7.50
2019-03-12T00:42:47.075Z,7.17
2019-03-12T00:45:16.160Z,7.40
2019-03-12T00:47:45.252Z,7.63
2019-03-12T00:50:14.383Z,6.53
2019-03-12T00:52:43.484Z,8.50
2019-03-12T00:55:12.673Z,3.80
2019-03-12T00:57:41.745Z,6.07
2019-03-12T01:00:12.184Z,8.03
2019-03-12T01:02:41.337Z,4.50
2019-03-12T01:05:10.557Z,9.83
2019-03-12T01:07:39.807Z,4.37
2019-03-12T01:10:09.818Z,8.50
2019-03-12T01:12:39.223Z,9.00
2019-03-12T01:15:08.788Z,8.73
2019-03-12T01:17:37.904Z,5.20
2019-03-12T01:20:08.422Z,11.67
2019-03-12T01:22:37.553Z,9.43
2019-03-12T01:25:07.338Z,8.83
2019-03-12T01:27:36.423Z,8.17
2019-03-12T01:30:05.833Z,11.43
2019-03-12T01:32:35.019Z,8.17
2019-03-12T01:35:04.640Z,5.60
2019-03-12T01:37:33.763Z,9.73
2019-03-12T01:40:02.907Z,6.17
2019-03-12T01:42:32.000Z,10.23
2019-03-12T01:45:01.106Z,5.80
2019-03-12T01:47:30.207Z,7.27
2019-03-12T01:49:59.371Z,4.53
2019-03-12T01:52:28.497Z,5.40
2019-03-12T01:54:57.621Z,11.60
2019-03-12T01:57:26.764Z,8.03
2019-03-12T01:59:56.062Z,9.23
2019-03-12T02:02:25.138Z,10.20
2019-03-12T02:04:54.228Z,10.30
2019-03-12T02:07:23.333Z,10.93
2019-03-12T02:09:52.437Z,8.70
2019-03-12T02:12:21.571Z,10.10
2019-03-12T02:14:50.732Z,9.73
2019-03-12T02:17:19.827Z,5.53
2019-03-12T02:19:49.235Z,5.20
2019-03-12T02:22:18.359Z,9.50
2019-03-12T02:24:52.794Z,6.73
2019-03-12T02:27:18.224Z,8.60
2019-03-12T02:29:47.329Z,10.63
2019-03-12T02:32:16.418Z,8.07
2019-03-12T02:34:45.525Z,6.80
2019-03-12T02:37:15.694Z,7.47
2019-03-12T02:39:44.972Z,7.07
2019-03-12T02:42:14.053Z,8.93
2019-03-12T02:44:43.301Z,6.00
2019-03-12T02:47:12.541Z,10.20
2019-03-12T02:49:41.690Z,11.13
2019-03-12T02:52:11.860Z,7.17
2019-03-12T02:54:40.951Z,8.60
2019-03-12T02:57:10.059Z,8.43
2019-03-12T02:59:39.145Z,9.83
2019-03-12T03:02:08.628Z,6.80
2019-03-12T03:04:37.709Z,9.30
2019-03-12T03:07:13.156Z,6.40
2019-03-12T03:09:42.245Z,9.30
2019-03-12T03:12:11.334Z,6.63
2019-03-12T03:14:40.820Z,6.93
2019-03-12T03:17:14.004Z,6.70
2019-03-12T03:19:43.108Z,5.27
2019-03-12T03:22:12.349Z,6.43
2019-03-12T03:24:41.859Z,14.90
2019-03-12T03:27:10.939Z,4.50
2019-03-12T03:29:40.037Z,7.53
2019-03-12T03:32:09.137Z,6.73
2019-03-12T03:34:38.479Z,8.70
2019-03-12T03:37:07.609Z,7.03
2019-03-12T03:39:36.713Z,5.00
2019-03-12T03:42:07.508Z,10.63
2019-03-12T03:44:36.683Z,4.77
2019-03-12T03:47:05.874Z,8.33
2019-03-12T03:49:34.945Z,9.90
2019-03-12T03:52:04.041Z,5.47
2019-03-12T03:54:33.152Z,7.67
2019-03-12T03:57:02.233Z,6.13
2019-03-12T03:59:31.362Z,11.03
2019-03-12T04:02:00.467Z,10.97
2019-03-12T04:04:29.564Z,12.93
2019-03-12T04:06:58.724Z,9.50
2019-03-12T04:09:27.881Z,11.20
2019-03-12T04:11:57.022Z,8.53
2019-03-12T04:14:26.173Z,11.50
2019-03-12T04:16:55.334Z,14.77
2019-03-12T04:19:24.441Z,17.53
2019-03-12T04:21:53.540Z,8.47
2019-03-12T04:24:22.732Z,11.77
2019-03-12T04:26:52.207Z,12.10
2019-03-12T04:29:21.300Z,10.10
2019-03-12T04:31:50.385Z,18.33
2019-03-12T04:34:23.913Z,14.87
2019-03-12T04:36:53.062Z,8.47
2019-03-12T04:39:22.175Z,13.20
2019-03-12T04:41:51.263Z,14.53
2019-03-12T04:44:20.745Z,9.00
2019-03-12T04:46:49.826Z,6.20
2019-03-12T04:49:18.927Z,13.43
2019-03-12T04:51:48.023Z,16.50
2019-03-12T04:54:17.123Z,12.93
2019-03-12T04:56:46.219Z,11.83
2019-03-12T04:59:15.607Z,19.97
2019-03-12T05:01:44.708Z,13.20
2019-03-12T05:04:13.780Z,10.63
2019-03-12T05:06:42.949Z,11.80
2019-03-12T05:09:12.110Z,10.60
2019-03-12T05:11:41.565Z,14.47
2019-03-12T05:14:39.028Z,14.23
2019-03-12T05:17:32.585Z,12.17
2019-03-12T05:20:01.693Z,26.47
2019-03-12T05:22:31.235Z,17.33
2019-03-12T05:25:00.616Z,14.30
2019-03-12T05:27:29.711Z,15.13
2019-03-12T05:29:58.813Z,19.07
2019-03-12T05:32:27.900Z,14.03
2019-03-12T05:34:57.011Z,13.57
2019-03-12T05:37:26.112Z,23.80
2019-03-12T05:39:55.229Z,14.30
2019-03-12T05:42:24.325Z,16.80
2019-03-12T05:44:53.710Z,25.17
2019-03-12T05:47:22.800Z,16.07
2019-03-12T05:49:51.903Z,20.20
2019-03-12T05:52:20.997Z,18.87
2019-03-12T05:54:50.103Z,13.10
2019-03-12T05:57:19.196Z,22.03
2019-03-12T05:59:48.294Z,30.97
2019-03-12T06:02:17.387Z,16.20
2019-03-12T06:04:46.500Z,22.30
2019-03-12T06:07:15.585Z,13.50
2019-03-12T06:09:44.980Z,17.50
2019-03-12T06:12:14.149Z,17.37
2019-03-12T06:14:43.264Z,19.23
2019-03-12T06:17:12.672Z,22.93
2019-03-12T06:19:41.756Z,18.43
2019-03-12T06:22:12.045Z,25.93
2019-03-12T06:24:41.457Z,16.03
2019-03-12T06:27:10.577Z,26.30
2019-03-12T06:29:39.647Z,21.33
2019-03-12T06:32:21.908Z,22.53
2019-03-12T06:35:00.404Z,29.13
2019-03-12T06:37:54.881Z,21.43
2019-03-12T06:40:52.028Z,15.00
2019-03-12T06:43:29.309Z,17.13
2019-03-12T06:46:05.860Z,18.27
2019-03-12T06:48:48.703Z,19.67
2019-03-12T06:51:36.127Z,20.33
2019-03-12T06:54:23.117Z,19.70
2019-03-12T06:57:17.240Z,18.40
2019-03-12T07:00:00.594Z,17.00
2019-03-12T07:02:38.420Z,19.50
2019-03-12T07:05:38.888Z,21.03
2019-03-12T07:08:20.862Z,25.33
2019-03-12T07:10:58.549Z,14.80
2019-03-12T07:13:32.985Z,20.17
2019-03-12T07:16:12.713Z,20.13
2019-03-12T07:19:01.004Z,15.93
2019-03-12T07:21:48.337Z,12.47
2019-03-12T07:24:32.534Z,16.13
2019-03-12T07:27:24.996Z,16.80
2019-03-12T07:30:13.183Z,12.43
2019-03-12T07:32:48.053Z,17.17
2019-03-12T07:35:54.566Z,16.60
2019-03-12T07:38:35.503Z,12.03
2019-03-12T07:41:32.374Z,10.43
2019-03-12T07:44:25.723Z,11.43
2019-03-12T07:47:12.664Z,15.63
2019-03-12T07:50:09.982Z,9.90
2019-03-12T07:52:50.304Z,15.03
2019-03-12T07:55:33.274Z,16.53
2019-03-12T07:58:14.305Z,18.13
2019-03-12T08:01:05.858Z,15.23
2019-03-12T08:03:50.100Z,15.93
2019-03-12T08:06:33.844Z,18.17
2019-03-12T08:09:12.892Z,13.73
2019-03-12T08:12:07.380Z,11.07
2019-03-12T08:14:52.157Z,8.77
2019-03-12T08:17:30.333Z,8.07
2019-03-12T08:20:10.534Z,12.00
2019-03-12T08:22:43.862Z,9.17
2019-03-12T08:25:25.207Z,9.20
2019-03-12T08:28:02.746Z,13.77
2019-03-12T08:30:41.088Z,16.73
2019-03-12T08:33:28.361Z,21.07
2019-03-12T08:36:20.053Z,11.10
2019-03-12T08:39:11.929Z,12.87
2019-03-12T08:41:46.572Z,8.33
2019-03-12T08:44:42.427Z,11.73
2019-03-12T08:47:24.703Z,13.40
2019-03-12T08:50:04.741Z,11.20
2019-03-12T08:52:43.569Z,9.10
2019-03-12T08:55:31.951Z,9.13
2019-03-12T08:58:19.394Z,5.67
2019-03-12T09:00:54.153Z,10.07
2019-03-12T09:03:43.551Z,13.40
2019-03-12T09:06:44.065Z,12.27
2019-03-12T09:09:36.533Z,9.90
2019-03-12T09:12:11.741Z,13.73
2019-03-12T09:14:50.533Z,9.63
2019-03-12T09:17:29.426Z,8.03
2019-03-12T09:20:09.583Z,11.80
2019-03-12T09:22:44.372Z,12.50
2019-03-12T09:25:26.416Z,11.60
2019-03-12T09:28:14.195Z,11.07
2019-03-12T09:30:54.183Z,14.83
2019-03-12T09:33:41.167Z,7.60
2019-03-12T09:36:44.618Z,10.40
2019-03-12T09:39:19.606Z,10.60
2019-03-12T09:42:09.334Z,14.00
2019-03-12T09:44:49.026Z,31.23
2019-03-12T09:47:23.894Z,16.00
2019-03-12T09:49:57.564Z,6.10
2019-03-12T09:52:48.792Z,13.03
2019-03-12T09:55:46.160Z,7.90
2019-03-12T09:58:33.144Z,12.40
2019-03-12T10:01:30.607Z,9.87
2019-03-12T10:04:11.887Z,10.00
2019-03-12T10:06:56.852Z,16.60
2019-03-12T10:09:42.049Z,9.20
2019-03-12T10:12:29.303Z,10.13
2019-03-12T10:15:11.780Z,11.73
2019-03-12T10:18:15.317Z,13.93
2019-03-12T10:21:01.505Z,12.50
2019-03-12T10:23:46.934Z,13.17
2019-03-12T10:26:28.852Z,13.40
2019-03-12T10:29:16.812Z,12.03
2019-03-12T10:31:58.889Z,15.20
2019-03-12T10:34:59.110Z,12.70
2019-03-12T10:37:47.442Z,9.77
2019-03-12T10:40:34.153Z,8.83
2019-03-12T10:43:14.119Z,12.80
2019-03-12T10:46:01.068Z,18.10
2019-03-12T10:48:31.542Z,14.53
2019-03-12T10:51:00.716Z,11.17
2019-03-12T10:53:29.825Z,14.50
2019-03-12T10:55:58.948Z,12.37
2019-03-12T10:58:28.057Z,15.53
2019-03-12T11:00:57.149Z,9.10
2019-03-12T11:03:26.273Z,11.17
2019-03-12T11:05:55.384Z,11.83
2019-03-12T11:08:24.868Z,14.30
2019-03-12T11:10:54.005Z,13.43
2019-03-12T11:13:23.506Z,16.10
2019-03-12T11:15:52.683Z,16.03
2019-03-12T11:18:21.811Z,13.40
2019-03-12T11:20:50.939Z,8.50
2019-03-12T11:23:20.056Z,10.43
2019-03-12T11:25:49.252Z,13.70
2019-03-12T11:28:18.435Z,12.50
2019-03-12T11:30:47.592Z,11.90
2019-03-12T11:33:16.820Z,12.83
2019-03-12T11:35:46.933Z,12.47
2019-03-12T11:38:16.195Z,11.73
2019-03-12T11:40:45.429Z,11.93
2019-03-12T11:43:14.726Z,17.77
2019-03-12T11:45:44.022Z,8.07
2019-03-12T11:48:13.171Z,13.33
2019-03-12T11:50:42.354Z,14.03
2019-03-12T11:53:11.780Z,15.60
2019-03-12T11:55:41.030Z,11.23
2019-03-12T11:58:10.208Z,11.30
2019-03-12T12:00:47.080Z,12.50
2019-03-12T12:03:16.244Z,7.60
2019-03-12T12:05:46.470Z,8.80
2019-03-12T12:08:15.576Z,10.40
2019-03-12T12:10:44.745Z,10.57
2019-03-12T12:13:13.848Z,9.83
2019-03-12T12:15:43.033Z,15.97
2019-03-12T12:18:12.455Z,8.37
2019-03-12T12:20:41.607Z,14.70
2019-03-12T12:23:10.727Z,8.83
2019-03-12T12:25:39.852Z,11.93
2019-03-12T12:28:08.964Z,11.40
2019-03-12T12:30:38.076Z,12.23
2019-03-12T12:33:08.333Z,9.77
2019-03-12T12:35:37.733Z,14.03
2019-03-12T12:38:06.911Z,9.07
2019-03-12T12:40:36.087Z,14.10
2019-03-12T12:43:05.202Z,12.23
2019-03-12T12:45:34.385Z,12.20
2019-03-12T12:48:03.576Z,11.53
2019-03-12T12:50:33.409Z,9.30
2019-03-12T12:53:02.515Z,11.53
2019-03-12T12:55:31.625Z,8.90
2019-03-12T12:58:00.719Z,8.63
2019-03-12T13:00:30.187Z,15.73
2019-03-12T13:02:59.440Z,10.70
2019-03-12T13:05:28.549Z,10.93
2019-03-12T13:07:57.681Z,13.23
2019-03-12T13:10:26.809Z,10.67
2019-03-12T13:12:55.980Z,9.77
2019-03-12T13:15:25.152Z,9.83
2019-03-12T13:17:54.260Z,10.97
2019-03-12T13:20:23.356Z,9.03
2019-03-12T13:22:52.472Z,10.43
2019-03-12T13:25:21.644Z,13.83
2019-03-12T13:27:50.777Z,12.50
2019-03-12T13:30:19.975Z,4.80
2019-03-12T13:32:49.104Z,9.00
2019-03-12T13:35:18.685Z,9.10
2019-03-12T13:37:48.435Z,9.70
2019-03-12T13:40:17.836Z,12.73
2019-03-12T13:42:46.936Z,7.00
2019-03-12T13:45:16.582Z,7.20
2019-03-12T13:47:45.827Z,9.23
2019-03-12T13:50:16.425Z,9.30
2019-03-12T13:52:45.789Z,12.17
2019-03-12T13:55:15.116Z,7.30
2019-03-12T13:57:44.435Z,7.40
2019-03-12T14:00:17.309Z,8.17
2019-03-12T14:02:46.740Z,8.53
2019-03-12T14:05:16.163Z,9.97
2019-03-12T14:07:45.575Z,10.10
2019-03-12T14:10:15.879Z,12.83
2019-03-12T14:12:44.988Z,7.83
2019-03-12T14:15:16.222Z,6.73
2019-03-12T14:17:45.393Z,9.63
2019-03-12T14:20:32.470Z,13.13
2019-03-12T14:23:01.681Z,21.30
2019-03-12T14:25:30.777Z,14.00
2019-03-12T14:27:59.969Z,11.53
2019-03-12T14:30:29.273Z,6.83
2019-03-12T14:32:58.396Z,9.70
2019-03-12T14:35:27.504Z,10.43
2019-03-12T14:37:56.726Z,7.03
2019-03-12T14:40:25.897Z,4.67
2019-03-12T14:42:55.012Z,10.43
2019-03-12T14:45:24.821Z,9.37
2019-03-12T14:47:54.043Z,8.63
2019-03-12T14:50:23.748Z,11.73
2019-03-12T14:53:00.547Z,10.37
2019-03-12T14:55:29.629Z,6.47
2019-03-12T14:57:58.728Z,9.20
2019-03-12T15:00:27.841Z,8.63
2019-03-12T15:02:56.937Z,20.70
2019-03-12T15:05:26.120Z,9.10
2019-03-12T15:07:55.225Z,6.93
2019-03-12T15:10:24.347Z,8.80
2019-03-12T15:12:53.438Z,3.87
2019-03-12T15:15:22.664Z,9.47
2019-03-12T15:17:51.756Z,6.53
2019-03-12T15:20:20.878Z,7.87
2019-03-12T15:22:50.004Z,11.43
2019-03-12T15:25:19.121Z,13.03
2019-03-12T15:27:48.212Z,6.77
2019-03-12T15:30:17.992Z,10.43
2019-03-12T15:32:47.148Z,17.37
2019-03-12T15:35:16.304Z,6.07
2019-03-12T15:37:45.426Z,6.53
2019-03-12T15:40:14.636Z,7.23
2019-03-12T15:42:44.133Z,9.53
2019-03-12T15:45:13.403Z,9.67
2019-03-12T15:47:43.520Z,8.50
2019-03-12T15:50:12.810Z,8.33
2019-03-12T15:52:42.004Z,4.80
2019-03-12T15:55:11.265Z,7.50
2019-03-12T15:57:40.484Z,5.63
2019-03-12T16:00:09.784Z,6.60
2019-03-12T16:02:38.981Z,10.73
2019-03-12T16:05:08.187Z,13.33
2019-03-12T16:07:37.398Z,10.70
2019-03-12T16:10:06.608Z,13.03
2019-03-12T16:12:35.778Z,9.30
2019-03-12T16:15:05.227Z,7.90
2019-03-12T16:17:34.317Z,7.57
2019-03-12T16:20:03.777Z,9.80
2019-03-12T16:22:32.877Z,13.40
2019-03-12T16:25:02.080Z,8.80
2019-03-12T16:27:31.188Z,12.53
2019-03-12T16:30:00.455Z,6.53
2019-03-12T16:32:29.676Z,19.40
2019-03-12T16:34:58.811Z,6.73
2019-03-12T16:37:27.973Z,4.83
2019-03-12T16:39:57.093Z,6.37
2019-03-12T16:42:35.116Z,7.50
2019-03-12T16:44:58.021Z,6.90
2019-03-12T16:47:27.112Z,7.90
2019-03-12T16:49:56.231Z,10.60
2019-03-12T16:52:25.320Z,9.23
2019-03-12T16:54:54.758Z,9.50
2019-03-12T16:57:23.841Z,9.10
2019-03-12T16:59:52.969Z,6.13
2019-03-12T17:02:22.079Z,12.70
2019-03-12T17:04:51.241Z,9.27
2019-03-12T17:07:20.342Z,8.30
2019-03-12T17:09:49.756Z,13.20
2019-03-12T17:12:19.120Z,7.33
2019-03-12T17:14:48.224Z,6.03
2019-03-12T17:17:17.324Z,9.60
2019-03-12T17:19:46.450Z,5.77
2019-03-12T17:22:15.594Z,11.03
2019-03-12T17:24:44.704Z,5.20
2019-03-12T17:27:13.817Z,16.50
2019-03-12T17:29:42.941Z,9.63
2019-03-12T17:32:12.024Z,10.17
2019-03-12T17:34:41.152Z,5.60
2019-03-12T17:37:10.237Z,7.37
2019-03-12T17:39:39.478Z,11.43
2019-03-12T17:42:08.752Z,5.23
2019-03-12T17:44:37.870Z,3.60
2019-03-12T17:47:06.969Z,7.90
2019-03-12T17:49:36.064Z,9.97
2019-03-12T17:52:05.182Z,3.90
2019-03-12T17:54:34.273Z,7.57
2019-03-12T17:57:03.415Z,8.77
2019-03-12T17:59:32.491Z,4.63
2019-03-12T18:02:01.641Z,4.53
2019-03-12T18:04:30.927Z,6.07
2019-03-12T18:07:00.059Z,4.70
2019-03-12T18:09:30.174Z,8.60
2019-03-12T18:11:59.336Z,5.77
2019-03-12T18:14:28.492Z,9.07
2019-03-12T18:16:57.684Z,5.93
2019-03-12T18:19:26.873Z,5.20
2019-03-12T18:21:55.968Z,7.63
2019-03-12T18:24:25.069Z,8.70
2019-03-12T18:26:54.192Z,5.80
2019-03-12T18:29:23.276Z,9.80
2019-03-12T18:31:52.403Z,7.73
2019-03-12T18:34:21.524Z,7.77
2019-03-12T18:36:50.640Z,6.83
2019-03-12T18:39:19.756Z,4.63
2019-03-12T18:41:48.879Z,7.03
2019-03-12T18:44:18.256Z,9.20
2019-03-12T18:46:47.370Z,8.77
2019-03-12T18:49:16.530Z,6.57
2019-03-12T18:51:45.628Z,7.80
2019-03-12T18:54:14.724Z,5.33
2019-03-12T18:56:43.881Z,7.77
2019-03-12T18:59:12.972Z,7.20
2019-03-12T19:01:42.148Z,5.17
2019-03-12T19:04:11.313Z,9.80
2019-03-12T19:06:40.434Z,6.83
2019-03-12T19:09:09.592Z,9.77
2019-03-12T19:11:38.978Z,7.30
2019-03-12T19:14:08.140Z,7.20
2019-03-12T19:16:37.240Z,8.33
2019-03-12T19:19:06.404Z,5.67
2019-03-12T19:21:35.524Z,7.07
2019-03-12T19:24:04.681Z,6.90
2019-03-12T19:26:33.855Z,8.20
2019-03-12T19:29:02.984Z,9.30
2019-03-12T19:31:51.333Z,6.77
2019-03-12T19:34:34.876Z,14.20
2019-03-12T19:37:04.145Z,8.03
2019-03-12T19:39:33.480Z,14.97
2019-03-12T19:42:02.668Z,10.30
2019-03-12T19:44:31.756Z,10.33
2019-03-12T19:47:04.205Z,9.83
2019-03-12T19:49:31.681Z,8.83
2019-03-12T19:52:00.783Z,4.07
2019-03-12T19:54:29.880Z,6.13
2019-03-12T19:56:59.019Z,4.97
2019-03-12T19:59:28.105Z,7.67
2019-03-12T20:01:59.097Z,5.87
2019-03-12T20:04:28.201Z,5.00
2019-03-12T20:06:57.502Z,7.30
2019-03-12T20:09:49.488Z,4.80
2019-03-12T20:12:29.095Z,7.67
2019-03-12T20:15:11.162Z,7.33
2019-03-12T20:17:59.952Z,4.43
2019-03-12T20:20:46.829Z,6.30
2019-03-12T20:23:31.232Z,4.43
2019-03-12T20:26:34.986Z,10.17
2019-03-12T20:29:21.191Z,5.60
2019-03-12T20:32:04.636Z,5.57
2019-03-12T20:34:55.771Z,5.47
2019-03-12T20:37:42.818Z,7.20
2019-03-12T20:40:40.304Z,11.77
2019-03-12T20:43:25.760Z,6.30
2019-03-12T20:46:13.007Z,11.33
2019-03-12T20:49:10.306Z,6.40
2019-03-12T20:52:05.917Z,4.40
2019-03-12T20:54:53.240Z,5.13
2019-03-12T20:57:40.203Z,6.73
2019-03-12T21:00:27.505Z,8.87
2019-03-12T21:03:09.956Z,16.23
2019-03-12T21:06:00.784Z,5.93
2019-03-12T21:08:52.378Z,6.70
2019-03-12T21:11:39.592Z,9.27
2019-03-12T21:14:34.092Z,8.70
2019-03-12T21:17:28.751Z,5.37
2019-03-12T21:20:15.885Z,4.50
2019-03-12T21:23:04.249Z,2.70
2019-03-12T21:25:48.213Z,5.70
2019-03-12T21:28:31.137Z,2.63
2019-03-12T21:31:00.309Z,2.70
2019-03-12T21:33:29.392Z,6.80
2019-03-12T21:35:58.536Z,4.37
2019-03-12T21:38:27.618Z,3.77
2019-03-12T21:40:56.725Z,4.03
2019-03-12T21:43:25.900Z,5.87
2019-03-12T21:45:55.079Z,5.20
2019-03-12T21:48:24.257Z,2.80
2019-03-12T21:50:53.491Z,12.80
2019-03-12T21:53:22.601Z,2.80
2019-03-12T21:55:51.799Z,4.87
2019-03-12T21:58:22.056Z,5.90
2019-03-12T22:00:51.197Z,4.57
2019-03-12T22:03:20.294Z,3.03
2019-03-12T22:05:49.392Z,3.13
2019-03-12T22:08:18.480Z,9.20
2019-03-12T22:10:47.598Z,4.00
2019-03-12T22:13:16.696Z,5.27
2019-03-12T22:15:45.790Z,4.17
2019-03-12T22:18:14.866Z,2.93
2019-03-12T22:20:44.273Z,2.97
2019-03-12T22:23:16.511Z,4.00
2019-03-12T22:25:45.615Z,4.33
2019-03-12T22:28:14.740Z,3.57
2019-03-12T22:30:43.843Z,2.57
2019-03-12T22:33:12.937Z,2.37
2019-03-12T22:35:42.191Z,4.33
2019-03-12T22:38:11.397Z,6.37
2019-03-12T22:40:40.602Z,5.23
2019-03-12T22:43:10.699Z,1.83
2019-03-12T22:45:39.848Z,2.47
2019-03-12T22:48:08.945Z,3.60
2019-03-12T22:50:38.040Z,3.37
2019-03-12T22:53:07.183Z,4.40
2019-03-12T22:55:37.277Z,2.53
2019-03-12T22:58:06.546Z,4.70
2019-03-12T23:00:54.885Z,5.03
2019-03-12T23:03:42.434Z,3.53
2019-03-12T23:06:29.425Z,4.03
2019-03-12T23:09:16.507Z,2.63
2019-03-12T23:11:47.674Z,4.80
2019-03-12T23:14:17.241Z,1.93
2019-03-12T23:16:46.674Z,2.93
2019-03-12T23:19:15.951Z,5.17
2019-03-12T23:21:45.428Z,3.57
2019-03-12T23:24:15.143Z,4.00
2019-03-12T23:26:45.014Z,3.57
2019-03-12T23:29:14.300Z,5.73
2019-03-12T23:31:43.509Z,4.23
2019-03-12T23:34:12.580Z,8.50
2019-03-12T23:36:41.685Z,2.40
2019-03-12T23:39:10.789Z,2.90
2019-03-12T23:41:39.996Z,7.20
2019-03-12T23:44:09.082Z,2.00
2019-03-12T23:46:39.159Z,1.73
2019-03-12T23:49:08.267Z,2.00
2019-03-12T23:51:37.454Z,3.50
2019-03-12T23:54:06.544Z,2.50
2019-03-12T23:56:35.664Z,4.10
2019-03-12T23:59:04.763Z,2.37
